Time;durP1;ratioP1;P1;durP2;ratioP2;P2;SDS_P1;SDS_P2;PMS_P1;PMS_P2;Temp;Humidity;BMP_temperature;BMP_pressure;BME280_temperature;BME280_humidity;BME280_pressure;Samples;Min_cycle;Max_cycle;Signal;HPM_P1;HPM_P2
2022/07/14 00:01:39;;;;;;;7.55;2.70;;;14.90;99.90;;;;;;5053486;28;20036;-51
2022/07/14 00:04:06;;;;;;;5.95;2.72;;;14.80;99.90;;;;;;5054772;28;20029;-51
2022/07/14 00:06:33;;;;;;;7.13;2.90;;;14.80;99.90;;;;;;5057082;28;20041;-51
2022/07/14 00:08:59;;;;;;;5.50;2.83;;;14.80;99.90;;;;;;5055998;28;20033;-51
2022/07/14 00:11:26;;;;;;;8.23;2.95;;;14.70;99.90;;;;;;5056080;28;20052;-51
2022/07/14 00:13:52;;;;;;;8.13;3.17;;;14.80;99.90;;;;;;5057066;28;20036;-51
2022/07/14 00:16:18;;;;;;;10.43;3.83;;;14.80;99.90;;;;;;5022656;28;20032;-51
2022/07/14 00:18:44;;;;;;;10.70;3.30;;;14.70;99.90;;;;;;5056947;28;20366;-51
2022/07/14 00:21:11;;;;;;;5.13;3.30;;;14.70;99.90;;;;;;5057016;28;20033;-51
2022/07/14 00:23:37;;;;;;;6.65;3.30;;;14.70;99.90;;;;;;5036925;28;20043;-51
2022/07/14 00:26:03;;;;;;;7.13;3.03;;;14.70;99.90;;;;;;5037052;28;20025;-51
2022/07/14 00:28:29;;;;;;;4.80;2.72;;;14.70;99.90;;;;;;5035596;28;20026;-51
2022/07/14 00:30:55;;;;;;;6.68;3.25;;;14.60;99.90;;;;;;5019138;28;20505;-51
2022/07/14 00:33:21;;;;;;;4.07;2.50;;;14.60;99.90;;;;;;5019085;28;20485;-51
2022/07/14 00:35:47;;;;;;;4.70;3.08;;;14.60;99.90;;;;;;5036841;28;20033;-51
2022/07/14 00:38:13;;;;;;;6.20;2.90;;;14.60;99.90;;;;;;5018746;28;20029;-51
2022/07/14 00:40:39;;;;;;;5.65;2.78;;;14.50;99.90;;;;;;5035770;28;20109;-51
2022/07/14 00:43:05;;;;;;;7.35;3.03;;;14.50;99.90;;;;;;5036477;28;20026;-51
2022/07/14 00:45:31;;;;;;;5.13;2.25;;;14.50;99.90;;;;;;5036687;28;20183;-51
2022/07/14 00:47:57;;;;;;;6.50;3.60;;;14.60;99.90;;;;;;5018864;28;20116;-51
2022/07/14 00:50:23;;;;;;;5.20;3.15;;;14.60;99.90;;;;;;5019008;28;20116;-51
2022/07/14 00:52:50;;;;;;;6.38;2.95;;;14.60;99.90;;;;;;5035084;28;20076;-51
2022/07/14 00:55:17;;;;;;;4.45;2.63;;;14.60;99.90;;;;;;5036322;28;20468;-51
2022/07/14 00:57:43;;;;;;;7.35;3.17;;;14.50;99.90;;;;;;5015070;28;20502;-51
2022/07/14 01:00:12;;;;;;;8.93;3.03;;;14.40;99.90;;;;;;5016919;28;20022;-51
2022/07/14 01:02:39;;;;;;;6.30;2.92;;;14.40;99.90;;;;;;5015214;28;20026;-51
2022/07/14 01:05:06;;;;;;;7.65;2.92;;;14.30;99.90;;;;;;5015139;28;20581;-51
2022/07/14 01:07:32;;;;;;;5.57;2.88;;;14.20;99.90;;;;;;5015322;28;20042;-51
2022/07/14 01:09:58;;;;;;;5.53;2.90;;;14.20;99.90;;;;;;5015159;28;20040;-51
2022/07/14 01:12:24;;;;;;;6.97;3.05;;;14.20;99.90;;;;;;5014965;28;20038;-51
2022/07/14 01:14:54;;;;;;;10.13;3.33;;;14.20;99.90;;;;;;5015014;28;20084;-51
2022/07/14 01:17:20;;;;;;;9.90;3.13;;;14.30;99.90;;;;;;5016253;28;20045;-51
2022/07/14 01:19:48;;;;;;;6.43;3.47;;;14.30;99.90;;;;;;5014959;28;20035;-51
2022/07/14 01:22:14;;;;;;;4.55;2.63;;;14.30;99.90;;;;;;5014790;28;20042;-51
2022/07/14 01:24:40;;;;;;;4.88;2.40;;;14.20;99.90;;;;;;5014857;28;20022;-51
2022/07/14 01:27:06;;;;;;;4.72;2.80;;;14.20;99.90;;;;;;5016009;28;20028;-51
2022/07/14 01:29:32;;;;;;;5.47;2.53;;;14.10;99.90;;;;;;5014806;28;20116;-51
2022/07/14 01:31:58;;;;;;;7.63;3.33;;;14.10;99.90;;;;;;5014557;28;20037;-51
2022/07/14 01:34:24;;;;;;;7.57;3.70;;;14.10;99.90;;;;;;5014678;28;20036;-51
2022/07/14 01:36:52;;;;;;;10.15;4.00;;;14.10;99.90;;;;;;4998268;28;20030;-51
2022/07/14 01:39:18;;;;;;;8.02;3.63;;;14.20;99.90;;;;;;5014406;28;20111;-51
2022/07/14 01:41:46;;;;;;;6.72;2.80;;;14.30;99.90;;;;;;5014203;28;20113;-51
2022/07/14 01:44:12;;;;;;;5.63;2.75;;;14.30;99.90;;;;;;5014423;28;20214;-51
2022/07/14 01:46:38;;;;;;;6.22;3.10;;;14.20;99.90;;;;;;4998204;28;20505;-51
2022/07/14 01:49:05;;;;;;;7.38;3.55;;;14.20;99.90;;;;;;4997971;28;20037;-51
2022/07/14 01:51:31;;;;;;;5.72;3.40;;;14.00;99.90;;;;;;5014468;28;20066;-51
2022/07/14 01:53:57;;;;;;;8.10;3.30;;;14.10;99.90;;;;;;5020555;28;20034;-51
2022/07/14 01:56:23;;;;;;;6.72;3.33;;;14.00;99.90;;;;;;5017427;28;20032;-51
2022/07/14 01:58:52;;;;;;;6.68;2.75;;;14.00;99.90;;;;;;5001477;28;20390;-51
2022/07/14 02:04:04;;;;;;;6.82;3.70;;;13.80;99.90;;;;;;5017334;28;20035;-51
2022/07/14 02:06:30;;;;;;;3.83;2.55;;;13.80;99.90;;;;;;5033899;28;20079;-51
2022/07/14 02:08:57;;;;;;;4.28;3.03;;;13.70;99.90;;;;;;5017381;28;20040;-51
2022/07/14 02:14:07;;;;;;;6.15;3.70;;;13.70;99.90;;;;;;5017303;28;20025;-51
2022/07/14 02:16:33;;;;;;;5.35;3.10;;;13.80;99.90;;;;;;5017036;28;20033;-51
2022/07/14 02:19:00;;;;;;;7.13;3.25;;;13.80;99.90;;;;;;5033521;28;20021;-51
2022/07/14 02:21:28;;;;;;;5.80;3.22;;;13.80;99.90;;;;;;5003069;28;20402;-51
2022/07/14 02:23:54;;;;;;;9.63;2.90;;;13.80;99.90;;;;;;5053131;28;20462;-51
2022/07/14 02:26:23;;;;;;;5.30;2.88;;;13.70;99.90;;;;;;5036790;28;20044;-51
2022/07/14 02:28:49;;;;;;;7.32;3.42;;;13.70;99.90;;;;;;5020372;28;20539;-51
2022/07/14 02:31:15;;;;;;;5.47;2.83;;;13.70;99.90;;;;;;5054491;28;20025;-51
2022/07/14 02:33:41;;;;;;;7.85;3.60;;;13.70;99.90;;;;;;5036862;28;20033;-51
2022/07/14 02:36:08;;;;;;;6.07;2.97;;;13.70;99.90;;;;;;5054385;28;20090;-51
2022/07/14 02:38:36;;;;;;;5.47;2.60;;;13.80;99.90;;;;;;5052881;28;20140;-51
2022/07/14 02:41:04;;;;;;;8.45;3.03;;;13.70;99.90;;;;;;5036599;28;20043;-51
2022/07/14 02:43:31;;;;;;;6.82;3.25;;;13.70;99.90;;;;;;5036664;28;20032;-51
2022/07/14 02:45:59;;;;;;;5.70;2.80;;;13.50;99.90;;;;;;5036553;28;20029;-51
2022/07/14 02:48:25;;;;;;;4.95;2.97;;;13.50;99.90;;;;;;5036648;28;20029;-51
2022/07/14 02:50:57;;;;;;;10.50;3.17;;;13.50;99.90;;;;;;5054267;28;20040;-51
2022/07/14 02:53:23;;;;;;;4.57;3.03;;;13.40;99.90;;;;;;5054099;28;20025;-51
2022/07/14 02:55:49;;;;;;;7.75;3.28;;;13.30;99.90;;;;;;5020024;28;20085;-51
2022/07/14 02:58:15;;;;;;;6.40;3.17;;;13.30;99.90;;;;;;5036394;28;20421;-51
2022/07/14 03:00:41;;;;;;;7.45;3.03;;;13.30;99.90;;;;;;5054116;28;20151;-51
2022/07/14 03:03:09;;;;;;;6.20;2.97;;;13.30;99.90;;;;;;5020558;28;20021;-51
2022/07/14 03:05:36;;;;;;;8.45;3.45;;;13.30;99.90;;;;;;5036281;28;20108;-51
2022/07/14 03:08:02;;;;;;;6.18;3.40;;;13.40;99.90;;;;;;5052872;28;20120;-51
2022/07/14 03:10:28;;;;;;;6.00;4.00;;;13.40;99.90;;;;;;5036435;28;20051;-51
2022/07/14 03:12:54;;;;;;;9.77;3.35;;;13.50;99.90;;;;;;5054180;28;20025;-51
2022/07/14 03:15:20;;;;;;;6.15;2.83;;;13.40;99.90;;;;;;5036173;28;20033;-51
2022/07/14 03:17:46;;;;;;;4.03;2.90;;;13.40;99.90;;;;;;5052676;28;20029;-51
2022/07/14 03:20:13;;;;;;;6.60;3.17;;;13.40;99.90;;;;;;5035880;28;20027;-51
2022/07/14 03:22:39;;;;;;;8.15;3.35;;;13.40;99.90;;;;;;5036047;28;20441;-51
2022/07/14 03:25:13;;;;;;;7.55;3.30;;;13.40;99.90;;;;;;5036311;28;20317;-51
2022/07/14 03:27:41;;;;;;;6.13;3.40;;;13.30;99.90;;;;;;5036139;28;20029;-51
2022/07/14 03:30:08;;;;;;;8.63;2.75;;;13.30;99.90;;;;;;5036265;28;20037;-51
2022/07/14 03:32:35;;;;;;;6.30;3.78;;;13.30;99.90;;;;;;5052605;28;20036;-51
2022/07/14 03:35:06;;;;;;;8.25;3.42;;;13.30;99.90;;;;;;5036055;28;20056;-51
2022/07/14 03:37:32;;;;;;;7.32;3.47;;;13.30;99.90;;;;;;5052504;28;20043;-51
2022/07/14 03:40:04;;;;;;;7.57;3.60;;;13.30;99.90;;;;;;5038666;28;20029;-51
2022/07/14 03:42:30;;;;;;;11.50;3.58;;;13.40;99.90;;;;;;5056330;28;20028;-51
2022/07/14 03:44:58;;;;;;;6.32;3.53;;;13.40;99.90;;;;;;5039934;28;20033;-51
2022/07/14 03:47:24;;;;;;;9.45;3.53;;;13.50;99.90;;;;;;5056412;28;20029;-51
2022/07/14 03:49:51;;;;;;;6.60;3.08;;;13.50;99.90;;;;;;5039631;28;20858;-51
2022/07/14 03:52:17;;;;;;;7.88;3.75;;;13.50;99.90;;;;;;5056278;28;20032;-51
2022/07/14 03:54:44;;;;;;;6.13;2.90;;;13.60;99.90;;;;;;5032291;28;20397;-51
2022/07/14 03:57:12;;;;;;;7.53;3.55;;;13.50;99.90;;;;;;5056035;28;20114;-51
2022/07/14 03:59:41;;;;;;;7.60;3.53;;;13.50;99.90;;;;;;5039607;28;20029;-51
2022/07/14 04:02:10;;;;;;;8.07;3.70;;;13.50;99.90;;;;;;5055853;28;20029;-51
2022/07/14 04:04:37;;;;;;;7.07;3.42;;;13.60;99.90;;;;;;5039415;28;20033;-51
2022/07/14 04:07:05;;;;;;;6.40;2.95;;;13.70;99.90;;;;;;5039163;28;20029;-51
2022/07/14 04:09:31;;;;;;;7.07;3.67;;;13.60;99.90;;;;;;5055896;28;20526;-51
2022/07/14 04:11:58;;;;;;;7.88;3.50;;;13.70;99.90;;;;;;5039793;28;20043;-51
2022/07/14 04:14:25;;;;;;;5.85;3.30;;;13.80;99.90;;;;;;5039321;28;20044;-51
2022/07/14 04:16:52;;;;;;;6.53;3.15;;;13.80;99.90;;;;;;5055417;28;20043;-51
2022/07/14 04:19:19;;;;;;;7.75;4.03;;;13.80;99.90;;;;;;5055555;28;20029;-51
2022/07/14 04:21:46;;;;;;;10.88;4.55;;;13.80;99.90;;;;;;5040550;28;20506;-51
2022/07/14 04:24:12;;;;;;;12.75;4.18;;;13.90;99.90;;;;;;5055623;28;20029;-51
2022/07/14 04:26:40;;;;;;;11.40;4.20;;;14.10;99.90;;;;;;5055668;28;20029;-51
2022/07/14 04:29:08;;;;;;;18.40;5.35;;;14.20;99.90;;;;;;5055589;28;20036;-51
2022/07/14 04:31:34;;;;;;;17.73;6.05;;;14.20;99.90;;;;;;5072340;28;20037;-51
2022/07/14 04:34:01;;;;;;;13.10;5.07;;;14.30;99.90;;;;;;5055673;28;20028;-51
2022/07/14 04:36:28;;;;;;;13.63;4.82;;;14.40;99.90;;;;;;5055458;28;20433;-51
2022/07/14 04:38:58;;;;;;;29.92;6.80;;;14.50;99.90;;;;;;5055380;28;20033;-51
2022/07/14 04:41:26;;;;;;;19.58;5.63;;;14.60;99.90;;;;;;5055716;28;20072;-51
2022/07/14 04:43:52;;;;;;;16.38;4.90;;;14.70;99.90;;;;;;5055586;28;20425;-51
2022/07/14 04:46:19;;;;;;;23.23;6.10;;;14.70;99.90;;;;;;5056605;28;20449;-51
2022/07/14 04:54:24;;;;;;;19.50;7.32;;;15.20;99.90;;;;;;5056383;28;20032;-51
2022/07/14 04:57:00;;;;;;;18.20;5.65;;;15.30;99.90;;;;;;5055126;28;20482;-51
2022/07/14 04:59:36;;;;;;;16.98;5.45;;;15.40;99.90;;;;;;5051746;28;20056;-51
2022/07/14 05:02:02;;;;;;;17.55;5.60;;;15.40;99.90;;;;;;5051884;28;20487;-51
2022/07/14 05:04:28;;;;;;;25.05;6.20;;;15.50;99.90;;;;;;5051683;28;20084;-51
2022/07/14 05:06:55;;;;;;;27.08;10.18;;;15.50;99.90;;;;;;5051134;28;20430;-51
2022/07/14 05:09:24;;;;;;;13.10;5.57;;;15.70;99.90;;;;;;5051381;28;20037;-51
2022/07/14 05:11:52;;;;;;;16.23;5.78;;;15.80;99.90;;;;;;5050733;28;20064;-51
2022/07/14 05:14:18;;;;;;;20.58;7.13;;;15.90;99.90;;;;;;5051358;28;20030;-51
2022/07/14 05:16:45;;;;;;;16.77;6.00;;;16.00;99.90;;;;;;5035832;28;20033;-51
2022/07/14 05:19:11;;;;;;;26.20;8.13;;;16.10;99.90;;;;;;5034774;28;20029;-51
2022/07/14 05:21:37;;;;;;;20.50;8.20;;;16.10;99.90;;;;;;5035679;28;20033;-51
2022/07/14 05:24:04;;;;;;;40.92;11.40;;;16.30;99.90;;;;;;5034539;28;20047;-51
2022/07/14 05:26:29;;;;;;;23.05;6.93;;;16.40;99.90;;;;;;5034331;28;20041;-51
2022/07/14 05:28:55;;;;;;;18.13;5.45;;;16.60;99.90;;;;;;5035774;28;20040;-51
2022/07/14 05:31:21;;;;;;;14.15;5.43;;;16.70;99.90;;;;;;5034047;28;20033;-51
2022/07/14 05:34:10;;;;;;;15.65;4.72;;;16.80;99.90;;;;;;5039089;28;20037;-51
2022/07/14 05:36:40;;;;;;;14.43;5.03;;;16.90;99.90;;;;;;5040681;28;20144;-51
2022/07/14 05:39:06;;;;;;;17.45;5.43;;;17.00;99.90;;;;;;5037543;28;20036;-51
2022/07/14 05:41:32;;;;;;;22.52;6.45;;;17.10;99.90;;;;;;5055450;28;20048;-51
2022/07/14 05:43:58;;;;;;;19.25;6.80;;;17.30;99.90;;;;;;5037632;28;20474;-52
2022/07/14 05:46:24;;;;;;;16.50;6.60;;;17.30;99.90;;;;;;5037513;28;20036;-51
2022/07/14 05:48:50;;;;;;;26.98;8.30;;;17.50;99.90;;;;;;5037190;28;20037;-51
2022/07/14 05:51:17;;;;;;;14.95;5.60;;;17.70;99.00;;;;;;5055345;28;20483;-51
2022/07/14 05:53:47;;;;;;;21.83;6.88;;;17.80;97.10;;;;;;5053910;28;20040;-51
2022/07/14 05:56:21;;;;;;;18.88;5.03;;;17.90;97.80;;;;;;5021059;28;20029;-51
2022/07/14 05:58:47;;;;;;;16.40;6.07;;;18.10;97.50;;;;;;5037436;28;20025;-51
2022/07/14 06:01:16;;;;;;;13.75;4.25;;;18.20;96.30;;;;;;5054602;28;20024;-52
2022/07/14 06:03:44;;;;;;;12.10;4.37;;;18.40;96.80;;;;;;5036752;28;20060;-51
2022/07/14 06:06:10;;;;;;;14.32;4.93;;;18.50;97.00;;;;;;5052494;28;20066;-52
2022/07/14 06:08:37;;;;;;;12.10;4.10;;;18.60;96.40;;;;;;5024392;28;20051;-51
2022/07/14 06:11:04;;;;;;;24.42;5.68;;;18.80;93.90;;;;;;5033459;28;20550;-52
2022/07/14 06:13:31;;;;;;;11.93;4.32;;;19.00;92.90;;;;;;5000819;28;20092;-52
2022/07/14 06:16:00;;;;;;;12.88;4.60;;;19.10;91.60;;;;;;5001170;28;20630;-51
2022/07/14 06:18:27;;;;;;;21.63;4.63;;;19.20;91.00;;;;;;5016846;28;20035;-52
2022/07/14 06:20:54;;;;;;;22.95;4.50;;;19.30;91.20;;;;;;5017111;28;20088;-52
2022/07/14 06:23:20;;;;;;;17.08;4.32;;;19.50;90.00;;;;;;5050149;28;20099;-52
2022/07/14 06:25:46;;;;;;;22.38;5.40;;;19.60;91.00;;;;;;5046330;28;20451;-52
2022/07/14 06:28:17;;;;;;;17.98;4.93;;;19.70;86.20;;;;;;5053262;28;20091;-52
2022/07/14 06:30:44;;;;;;;16.23;4.03;;;19.80;86.00;;;;;;5036188;28;20091;-52
2022/07/14 06:33:10;;;;;;;15.93;4.88;;;20.00;84.50;;;;;;5036302;28;20109;-52
2022/07/14 06:35:40;;;;;;;22.83;4.70;;;20.20;82.90;;;;;;5053099;28;20037;-52
2022/07/14 06:38:08;;;;;;;17.08;4.60;;;20.40;79.20;;;;;;5048680;28;20075;-52
2022/07/14 06:40:39;;;;;;;13.82;4.07;;;20.60;79.10;;;;;;5049709;28;20053;-52
2022/07/14 06:43:05;;;;;;;;;;;20.80;76.90;;;;;;5035044;28;20033;-52
2022/07/14 06:45:40;;;;;;;14.00;3.92;;;21.00;73.40;;;;;;5051474;28;19916;-52
2022/07/14 06:48:07;;;;;;;9.25;3.80;;;21.10;71.80;;;;;;5029054;28;20115;-52
2022/07/14 06:50:34;;;;;;;15.45;3.85;;;21.30;70.50;;;;;;5069175;28;20068;-52
2022/07/14 06:52:59;;;;;;;10.23;3.60;;;21.50;71.10;;;;;;5053966;28;20382;-52
2022/07/14 06:55:25;;;;;;;13.05;4.00;;;21.60;70.30;;;;;;5054210;28;20024;-52
2022/07/14 06:57:51;;;;;;;10.73;3.60;;;21.90;69.10;;;;;;5054669;28;20025;-52
2022/07/14 07:00:18;;;;;;;16.08;4.72;;;22.10;67.70;;;;;;5053003;28;20082;-52
2022/07/14 07:02:44;;;;;;;15.35;4.00;;;22.30;65.90;;;;;;5054065;28;20500;-52
2022/07/14 07:08:00;;;;;;;10.95;4.28;;;22.80;64.70;;;;;;5054139;28;20036;-52
2022/07/14 07:10:27;;;;;;;12.35;3.75;;;23.20;63.20;;;;;;5053996;28;20079;-52
2022/07/14 07:12:54;;;;;;;11.48;3.65;;;23.40;59.00;;;;;;5055152;28;20021;-52
2022/07/14 07:15:20;;;;;;;9.95;4.85;;;23.60;58.40;;;;;;5058190;28;20033;-52
2022/07/14 07:17:46;;;;;;;10.35;4.25;;;23.80;58.50;;;;;;5057877;28;20399;-52
2022/07/14 07:20:12;;;;;;;11.15;3.50;;;24.20;57.10;;;;;;5057035;28;20039;-52
2022/07/14 07:22:38;;;;;;;12.90;4.10;;;24.20;56.60;;;;;;5057776;28;20616;-52
2022/07/14 07:25:06;;;;;;;22.08;5.63;;;24.40;57.20;;;;;;5058006;28;20027;-52
2022/07/14 07:27:45;;;;;;;11.52;3.88;;;24.80;55.80;;;;;;5040159;28;20502;-52
2022/07/14 07:30:12;;;;;;;22.80;5.57;;;25.10;54.60;;;;;;5056502;28;20032;-52
2022/07/14 07:32:39;;;;;;;17.13;4.13;;;25.50;53.90;;;;;;5057755;28;20126;-52
2022/07/14 07:35:05;;;;;;;11.77;4.32;;;25.80;53.00;;;;;;5056735;28;20033;-52
2022/07/14 07:37:31;;;;;;;12.55;4.03;;;26.10;53.60;;;;;;5027769;28;20064;-52
2022/07/14 07:39:58;;;;;;;15.13;4.65;;;26.20;52.70;;;;;;5046306;28;20053;-52
2022/07/14 07:42:25;;;;;;;10.27;3.30;;;26.40;51.70;;;;;;5037419;28;20026;-52
2022/07/14 07:44:51;;;;;;;16.98;3.63;;;26.90;52.20;;;;;;5037379;28;20459;-52
2022/07/14 07:47:17;;;;;;;19.05;5.35;;;27.40;51.90;;;;;;5036337;28;20076;-52
2022/07/14 07:49:43;;;;;;;16.85;4.55;;;27.60;48.60;;;;;;5036282;28;20077;-52
2022/07/14 07:52:09;;;;;;;18.60;5.28;;;27.60;48.10;;;;;;5037792;28;20033;-52
2022/07/14 07:54:36;;;;;;;16.80;3.88;;;27.90;47.70;;;;;;5040083;28;20052;-52
2022/07/14 07:57:02;;;;;;;24.25;6.15;;;28.10;47.10;;;;;;5027884;28;20147;-52
2022/07/14 07:59:28;;;;;;;13.38;4.32;;;28.50;47.60;;;;;;5039116;28;20043;-52
2022/07/14 08:01:54;;;;;;;25.02;5.65;;;28.60;46.00;;;;;;5057249;28;20025;-52
2022/07/14 08:04:20;;;;;;;15.68;4.57;;;28.40;44.30;;;;;;5056935;28;20060;-52
2022/07/14 08:06:46;;;;;;;21.52;5.15;;;28.70;45.00;;;;;;5049757;28;20098;-53
2022/07/14 08:09:12;;;;;;;12.10;4.28;;;28.00;44.50;;;;;;5038785;28;20045;-52
2022/07/14 08:11:40;;;;;;;11.98;4.15;;;28.40;45.30;;;;;;5035885;28;20037;-53
2022/07/14 08:14:47;;;;;;;15.50;4.10;;;28.90;45.20;;;;;;5036516;28;20078;-52
2022/07/14 08:16:53;;;;;;;10.98;4.57;;;29.00;45.10;;;;;;5018990;28;20077;-53
2022/07/14 08:19:19;;;;;;;20.35;5.03;;;29.40;43.80;;;;;;5035607;28;20402;-52
2022/07/14 08:21:45;;;;;;;19.25;3.70;;;29.50;43.10;;;;;;5037081;28;20048;-53
2022/07/14 08:24:11;;;;;;;16.67;3.70;;;29.20;43.60;;;;;;5039145;28;20621;-53
2022/07/14 08:26:37;;;;;;;10.45;3.13;;;29.50;43.50;;;;;;5037826;28;20146;-53
2022/07/14 08:29:04;;;;;;;12.63;3.00;;;29.90;45.00;;;;;;5045154;28;20032;-52
2022/07/14 08:31:30;;;;;;;12.85;3.47;;;30.20;43.40;;;;;;5031010;28;20021;-53
2022/07/14 08:33:56;;;;;;;11.15;3.03;;;30.30;41.70;;;;;;5031881;28;20391;-53
2022/07/14 08:36:22;;;;;;;18.23;3.72;;;29.40;41.20;;;;;;5055381;28;20394;-53
2022/07/14 08:38:48;;;;;;;7.97;2.50;;;29.50;41.30;;;;;;5046828;28;20378;-53
2022/07/14 08:41:14;;;;;;;8.45;2.40;;;29.20;42.30;;;;;;5038687;28;20046;-53
2022/07/14 08:43:41;;;;;;;7.25;2.58;;;29.70;42.30;;;;;;5025754;28;20025;-53
2022/07/14 08:46:10;;;;;;;7.22;2.72;;;30.30;40.10;;;;;;5048618;28;20041;-53
2022/07/14 08:48:36;;;;;;;14.82;3.17;;;30.60;39.00;;;;;;5049502;28;20027;-53
2022/07/14 08:51:03;;;;;;;6.22;2.13;;;31.10;39.00;;;;;;5045350;28;20479;-53
2022/07/14 08:53:29;;;;;;;7.55;1.70;;;31.60;40.30;;;;;;5050890;28;20485;-53
2022/07/14 08:55:59;;;;;;;2.80;1.77;;;31.90;38.00;;;;;;5045490;28;20036;-53
2022/07/14 08:58:25;;;;;;;7.32;1.92;;;31.80;37.00;;;;;;5038257;28;20037;-53
2022/07/14 09:00:53;;;;;;;7.72;2.55;;;32.00;36.90;;;;;;5055813;28;20112;-53
2022/07/14 09:03:19;;;;;;;7.43;2.20;;;32.10;36.70;;;;;;5054714;28;20029;-53
2022/07/14 09:05:45;;;;;;;5.70;1.90;;;32.40;35.60;;;;;;5056000;28;20513;-53
2022/07/14 09:08:12;;;;;;;5.03;1.92;;;32.30;35.30;;;;;;5038186;28;20408;-53
2022/07/14 09:10:40;;;;;;;12.80;3.15;;;32.00;35.30;;;;;;5050719;28;20117;-52
2022/07/14 09:13:19;;;;;;;3.65;1.40;;;32.20;37.00;;;;;;5049367;28;20048;-53
2022/07/14 09:15:47;;;;;;;6.30;1.80;;;32.60;34.80;;;;;;5039710;28;20040;-53
2022/07/14 09:18:22;;;;;;;7.15;2.17;;;32.80;33.70;;;;;;5047942;28;20451;-53
2022/07/14 09:20:49;;;;;;;3.90;1.52;;;33.00;33.70;;;;;;5037403;28;20522;-53
2022/07/14 09:23:24;;;;;;;4.53;2.00;;;33.30;34.50;;;;;;5055212;28;20045;-53
2022/07/14 09:25:50;;;;;;;19.02;3.80;;;33.50;34.80;;;;;;5021453;28;20033;-53
2022/07/14 09:28:25;;;;;;;16.77;3.60;;;33.90;33.60;;;;;;5048930;28;20040;-53
2022/07/14 09:30:51;;;;;;;8.77;2.50;;;34.20;32.80;;;;;;5048198;28;20029;-53
2022/07/14 09:33:17;;;;;;;10.93;3.10;;;33.90;32.20;;;;;;5043655;28;20437;-53
2022/07/14 09:35:43;;;;;;;12.52;3.28;;;34.00;30.90;;;;;;5052659;28;20025;-53
2022/07/14 09:38:15;;;;;;;6.00;2.13;;;33.20;32.10;;;;;;5025084;28;20581;-53
2022/07/14 09:40:41;;;;;;;7.15;1.48;;;33.60;31.70;;;;;;5017686;28;20060;-53
2022/07/14 09:43:09;;;;;;;15.48;2.42;;;33.90;29.60;;;;;;5036580;28;22279;-53
2022/07/14 09:45:37;;;;;;;17.10;3.40;;;34.20;30.80;;;;;;5047418;28;20048;-53
2022/07/14 09:48:08;;;;;;;15.00;2.78;;;33.50;28.30;;;;;;5055236;28;20029;-53
2022/07/14 09:50:54;;;;;;;10.20;2.38;;;34.00;29.60;;;;;;5030026;28;20086;-53
2022/07/14 09:53:24;;;;;;;7.07;1.85;;;32.80;31.30;;;;;;5042486;28;20041;-53
2022/07/14 09:55:53;;;;;;;;;;;33.30;29.50;;;;;;5045214;28;20116;-53
2022/07/14 09:58:24;;;;;;;9.23;1.90;;;33.60;30.30;;;;;;5028071;28;19939;-53
2022/07/14 10:00:56;;;;;;;10.40;2.45;;;33.70;29.70;;;;;;5044044;28;20021;-53
2022/07/14 10:03:25;;;;;;;35.15;5.38;;;34.00;29.50;;;;;;5050554;28;20112;-53
2022/07/14 10:05:53;;;;;;;11.77;2.13;;;34.40;29.00;;;;;;5036782;28;20426;-53
2022/07/14 10:08:25;;;;;;;45.83;6.68;;;34.80;28.70;;;;;;5048935;28;20030;-53
2022/07/14 10:10:52;;;;;;;7.78;1.95;;;34.90;28.30;;;;;;5042760;28;20025;-53
2022/07/14 10:13:20;;;;;;;9.40;2.05;;;34.90;26.50;;;;;;5047376;28;20117;-53
2022/07/14 10:15:51;;;;;;;27.08;4.53;;;34.00;27.50;;;;;;5036734;28;20292;-53
2022/07/14 10:18:17;;;;;;;10.85;1.98;;;33.60;27.50;;;;;;5034592;28;20403;-53
2022/07/14 10:20:50;;;;;;;7.82;2.63;;;32.00;29.10;;;;;;5019262;28;20375;-53
2022/07/14 10:23:17;;;;;;;8.68;2.53;;;33.10;30.00;;;;;;5057102;28;20052;-53
2022/07/14 10:25:54;;;;;;;32.05;10.15;;;34.20;30.80;;;;;;5042499;28;20028;-53
2022/07/14 10:28:22;;;;;;;14.35;3.35;;;34.80;29.20;;;;;;5037312;28;20033;-54
2022/07/14 10:31:00;;;;;;;13.95;2.95;;;35.20;29.80;;;;;;5044716;28;20041;-53
2022/07/14 10:33:43;;;;;;;20.63;3.92;;;35.40;28.20;;;;;;5049876;28;20020;-53
2022/07/14 10:36:19;;;;;;;8.00;2.25;;;35.20;28.10;;;;;;5057834;28;20095;-53
2022/07/14 10:39:02;;;;;;;6.07;2.05;;;35.50;27.10;;;;;;5049254;28;20546;-53
2022/07/14 10:41:39;;;;;;;17.90;2.85;;;35.80;26.50;;;;;;5043202;28;20333;-53
2022/07/14 10:44:07;;;;;;;10.35;2.53;;;36.10;27.60;;;;;;5044670;28;20140;-53
2022/07/14 10:46:45;;;;;;;6.28;1.98;;;36.00;26.30;;;;;;5053046;28;20021;-53
2022/07/14 10:49:13;;;;;;;17.70;2.83;;;36.40;27.00;;;;;;5052103;28;20112;-53
2022/07/14 10:51:50;;;;;;;8.85;3.05;;;35.30;25.70;;;;;;5069471;28;20112;-53
2022/07/14 10:54:30;;;;;;;9.45;2.75;;;35.80;27.80;;;;;;5050666;28;20111;-53
2022/07/14 10:57:17;;;;;;;14.32;3.88;;;36.40;25.90;;;;;;5064823;28;20044;-53
2022/07/14 10:59:44;;;;;;;15.85;3.67;;;36.10;26.50;;;;;;5048064;28;20402;-53
2022/07/14 11:02:13;;;;;;;9.77;3.10;;;36.20;26.20;;;;;;5051925;28;20501;-53
2022/07/14 11:04:58;;;;;;;15.73;3.20;;;35.00;25.80;;;;;;5047683;28;20068;-53
2022/07/14 11:07:47;;;;;;;16.55;3.80;;;35.50;26.80;;;;;;5049313;28;20382;-53
2022/07/14 11:10:19;;;;;;;14.48;3.85;;;36.00;27.20;;;;;;5044797;28;20040;-53
2022/07/14 11:13:06;;;;;;;15.77;3.70;;;36.50;28.10;;;;;;5050299;28;20391;-53
2022/07/14 11:15:53;;;;;;;8.25;2.55;;;36.80;25.40;;;;;;5061748;28;20544;-53
2022/07/14 11:18:19;;;;;;;15.68;3.10;;;36.80;27.10;;;;;;5046418;28;20071;-53
2022/07/14 11:20:50;;;;;;;9.85;3.65;;;36.70;24.90;;;;;;5047659;28;20097;-53
2022/07/14 11:23:22;;;;;;;14.70;3.92;;;36.50;26.10;;;;;;5017225;28;20046;-53
2022/07/14 11:25:53;;;;;;;14.30;4.78;;;36.90;25.50;;;;;;5025761;28;20030;-53
2022/07/14 11:28:40;;;;;;;11.13;3.13;;;35.80;25.60;;;;;;5025991;28;20383;-53
2022/07/14 11:31:14;;;;;;;6.93;2.63;;;36.50;25.90;;;;;;5029409;28;20025;-53
2022/07/14 11:36:30;;;;;;;9.50;2.30;;;36.20;25.00;;;;;;5024954;28;20030;-53
2022/07/14 11:39:14;;;;;;;15.25;4.68;;;34.80;25.40;;;;;;5024860;28;20029;-53
2022/07/14 11:42:13;;;;;;;7.25;2.17;;;35.40;25.60;;;;;;5028904;28;20112;-53
2022/07/14 11:44:39;;;;;;;2.83;1.33;;;36.00;26.30;;;;;;5002300;28;20412;-53
2022/07/14 11:47:07;;;;;;;3.80;0.98;;;36.20;25.10;;;;;;5025810;28;20036;-53
2022/07/14 11:49:35;;;;;;;4.05;1.80;;;36.40;23.20;;;;;;5019712;28;20408;-53
2022/07/14 11:52:05;;;;;;;7.43;1.80;;;36.80;22.40;;;;;;5032775;28;20459;-53
2022/07/14 11:54:31;;;;;;;6.50;1.63;;;36.60;22.70;;;;;;5031186;28;20029;-53
2022/07/14 11:57:05;;;;;;;8.20;1.20;;;36.50;23.10;;;;;;5027262;28;20561;-53
2022/07/14 11:59:36;;;;;;;8.20;1.85;;;36.70;25.20;;;;;;5025691;28;20444;-53
2022/07/14 12:02:15;;;;;;;3.90;1.10;;;37.10;23.90;;;;;;5022480;28;20037;-53
2022/07/14 12:05:10;;;;;;;21.55;3.60;;;36.60;21.80;;;;;;5013975;28;20029;-53
2022/07/14 12:07:47;;;;;;;3.90;1.13;;;37.10;23.20;;;;;;5024909;28;20065;-53
2022/07/14 12:10:15;;;;;;;7.00;1.75;;;37.50;22.80;;;;;;5037324;28;20033;-53
2022/07/14 12:12:45;;;;;;;6.68;1.88;;;36.50;22.00;;;;;;5028551;28;20060;-53
2022/07/14 12:15:20;;;;;;;6.17;1.70;;;37.00;21.90;;;;;;5020091;28;20041;-53
2022/07/14 12:17:48;;;;;;;5.00;1.65;;;37.00;21.50;;;;;;4999910;28;20060;-53
2022/07/14 12:20:14;;;;;;;3.58;1.60;;;37.40;23.10;;;;;;5021300;28;20497;-53
2022/07/14 12:22:44;;;;;;;3.95;1.33;;;37.50;21.90;;;;;;5049407;28;20052;-53
2022/07/14 12:25:34;;;;;;;3.70;1.38;;;37.60;21.30;;;;;;5055815;28;20032;-53
2022/07/14 12:28:02;;;;;;;;;;;37.40;21.50;;;;;;5048952;28;20037;-53
2022/07/14 12:30:42;;;;;;;4.72;1.75;;;37.20;21.80;;;;;;5039131;28;19920;-53
2022/07/14 12:33:08;;;;;;;6.97;2.35;;;37.20;20.50;;;;;;5021013;28;20044;-53
2022/07/14 12:35:35;;;;;;;4.97;1.90;;;37.40;21.40;;;;;;5057871;28;20288;-53
2022/07/14 12:38:01;;;;;;;12.00;2.13;;;37.20;21.10;;;;;;5027110;28;20022;-53
2022/07/14 12:40:28;;;;;;;7.53;1.90;;;37.20;21.30;;;;;;5028313;28;20056;-53
2022/07/14 12:42:54;;;;;;;11.27;1.90;;;37.10;22.00;;;;;;5029308;28;20542;-53
2022/07/14 12:45:20;;;;;;;2.40;1.10;;;37.40;21.70;;;;;;5028424;28;20084;-53
2022/07/14 12:47:51;;;;;;;10.07;1.48;;;37.50;23.00;;;;;;5055437;28;20576;-53
2022/07/14 12:50:19;;;;;;;9.43;1.48;;;37.50;22.60;;;;;;5056511;28;20075;-53
2022/07/14 12:52:50;;;;;;;10.57;2.35;;;37.40;20.80;;;;;;5056775;28;20025;-53
2022/07/14 12:55:36;;;;;;;7.18;1.88;;;37.30;22.10;;;;;;5036529;28;20120;-53
2022/07/14 12:58:04;;;;;;;2.47;0.95;;;37.50;21.70;;;;;;5054802;28;20033;-53
2022/07/14 13:00:32;;;;;;;2.20;1.00;;;37.10;21.90;;;;;;5056585;28;20025;-53
2022/07/14 13:03:07;;;;;;;5.40;1.30;;;37.20;19.40;;;;;;5052322;28;20017;-53
2022/07/14 13:05:37;;;;;;;1.73;0.90;;;36.80;20.50;;;;;;5029714;28;20486;-53
2022/07/14 13:08:29;;;;;;;3.22;1.23;;;36.90;21.70;;;;;;5067966;28;20039;-53